sensor_id;sensor_type;location;lat;lon;timestamp;pressure;altitude;pressure_sealevel;temperature;humidity
53858;BME280;39763;51.188;6.690;2022-07-01T00:01:21;101158.59;;;18.73;76.41
53858;BME280;39763;51.188;6.690;2022-07-01T00:02:53;101146.66;;;18.80;76.28
53858;BME280;39763;51.188;6.690;2022-07-01T00:04:26;101147.41;;;18.82;75.72
53858;BME280;39763;51.188;6.690;2022-07-01T00:06:19;101139.22;;;18.85;76.36
53858;BME280;39763;51.188;6.690;2022-07-01T00:07:51;101142.28;;;18.93;75.70
53858;BME280;39763;51.188;6.690;2022-07-01T00:09:23;101150.72;;;18.85;74.95
53858;BME280;39763;51.188;6.690;2022-07-01T00:10:58;101148.19;;;18.84;75.47
53858;BME280;39763;51.188;6.690;2022-07-01T00:12:30;101145.88;;;18.92;75.93
53858;BME280;39763;51.188;6.690;2022-07-01T00:14:03;101146.38;;;18.98;76.18
53858;BME280;39763;51.188;6.690;2022-07-01T00:15:35;101142.56;;;19.02;75.76
53858;BME280;39763;51.188;6.690;2022-07-01T00:17:07;101157.03;;;18.98;75.06
53858;BME280;39763;51.188;6.690;2022-07-01T00:18:39;101155.69;;;19.06;75.39
53858;BME280;39763;51.188;6.690;2022-07-01T00:20:12;101150.28;;;19.07;74.84
53858;BME280;39763;51.188;6.690;2022-07-01T00:21:44;101161.00;;;19.06;74.13
53858;BME280;39763;51.188;6.690;2022-07-01T00:23:16;101166.53;;;19.02;74.23
53858;BME280;39763;51.188;6.690;2022-07-01T00:24:48;101156.19;;;18.98;73.85
53858;BME280;39763;51.188;6.690;2022-07-01T00:26:20;101158.44;;;19.04;74.07
53858;BME280;39763;51.188;6.690;2022-07-01T00:27:52;101161.09;;;19.04;73.69
53858;BME280;39763;51.188;6.690;2022-07-01T00:29:26;101163.31;;;18.97;73.16
53858;BME280;39763;51.188;6.690;2022-07-01T00:30:58;101166.59;;;18.87;73.62
53858;BME280;39763;51.188;6.690;2022-07-01T00:32:31;101172.22;;;18.82;73.58
53858;BME280;39763;51.188;6.690;2022-07-01T00:34:03;101166.03;;;18.82;73.36
53858;BME280;39763;51.188;6.690;2022-07-01T00:35:34;101162.69;;;18.78;73.56
53858;BME280;39763;51.188;6.690;2022-07-01T00:37:06;101161.94;;;18.76;73.95
53858;BME280;39763;51.188;6.690;2022-07-01T00:38:38;101164.50;;;18.78;74.00
53858;BME280;39763;51.188;6.690;2022-07-01T00:40:11;101172.56;;;18.76;73.90
53858;BME280;39763;51.188;6.690;2022-07-01T00:41:43;101174.38;;;18.76;74.08
53858;BME280;39763;51.188;6.690;2022-07-01T00:43:15;101174.66;;;18.71;73.63
53858;BME280;39763;51.188;6.690;2022-07-01T00:44:59;101177.22;;;18.73;73.83
53858;BME280;39763;51.188;6.690;2022-07-01T00:46:32;101175.81;;;18.67;73.48
53858;BME280;39763;51.188;6.690;2022-07-01T00:48:05;101180.69;;;18.59;73.72
53858;BME280;39763;51.188;6.690;2022-07-01T00:49:38;101186.63;;;18.64;74.14
53858;BME280;39763;51.188;6.690;2022-07-01T00:51:11;101188.75;;;18.57;74.14
53858;BME280;39763;51.188;6.690;2022-07-01T00:52:44;101175.53;;;18.56;74.17
53858;BME280;39763;51.188;6.690;2022-07-01T00:54:16;101182.66;;;18.55;74.12
53858;BME280;39763;51.188;6.690;2022-07-01T00:55:48;101185.06;;;18.60;74.28
53858;BME280;39763;51.188;6.690;2022-07-01T00:57:20;101177.78;;;18.63;74.25
53858;BME280;39763;51.188;6.690;2022-07-01T00:58:53;101183.50;;;18.56;74.16
53858;BME280;39763;51.188;6.690;2022-07-01T01:00:27;101181.22;;;18.65;73.49
53858;BME280;39763;51.188;6.690;2022-07-01T01:01:59;101175.22;;;18.62;73.65
53858;BME280;39763;51.188;6.690;2022-07-01T01:03:31;101178.56;;;18.65;74.18
53858;BME280;39763;51.188;6.690;2022-07-01T01:05:04;101185.19;;;18.73;74.08
53858;BME280;39763;51.188;6.690;2022-07-01T01:06:36;101193.09;;;18.74;73.69
53858;BME280;39763;51.188;6.690;2022-07-01T01:08:08;101191.56;;;18.70;73.52
53858;BME280;39763;51.188;6.690;2022-07-01T01:09:41;101192.53;;;18.69;73.67
53858;BME280;39763;51.188;6.690;2022-07-01T01:11:16;101202.41;;;18.67;73.50
53858;BME280;39763;51.188;6.690;2022-07-01T01:12:48;101194.50;;;18.65;73.93
53858;BME280;39763;51.188;6.690;2022-07-01T01:14:20;101194.69;;;18.62;74.03
53858;BME280;39763;51.188;6.690;2022-07-01T01:15:54;101188.75;;;18.57;73.92
53858;BME280;39763;51.188;6.690;2022-07-01T01:17:27;101208.16;;;18.59;73.95
53858;BME280;39763;51.188;6.690;2022-07-01T01:18:59;101218.09;;;18.56;73.75
53858;BME280;39763;51.188;6.690;2022-07-01T01:20:34;101223.59;;;18.53;73.48
53858;BME280;39763;51.188;6.690;2022-07-01T01:22:06;101223.09;;;18.46;73.50
53858;BME280;39763;51.188;6.690;2022-07-01T01:23:38;101220.66;;;18.57;72.99
53858;BME280;39763;51.188;6.690;2022-07-01T01:25:11;101217.34;;;18.54;72.97
53858;BME280;39763;51.188;6.690;2022-07-01T01:26:43;101220.34;;;18.48;73.08
53858;BME280;39763;51.188;6.690;2022-07-01T01:28:15;101213.50;;;18.44;72.88
53858;BME280;39763;51.188;6.690;2022-07-01T01:29:47;101212.72;;;18.42;73.28
53858;BME280;39763;51.188;6.690;2022-07-01T01:31:28;101220.34;;;18.48;73.41
53858;BME280;39763;51.188;6.690;2022-07-01T01:33:02;101215.97;;;18.47;73.16
53858;BME280;39763;51.188;6.690;2022-07-01T01:34:34;101221.94;;;18.36;73.10
53858;BME280;39763;51.188;6.690;2022-07-01T01:36:10;101209.75;;;18.32;73.20
53858;BME280;39763;51.188;6.690;2022-07-01T01:37:42;101218.56;;;18.32;73.55
53858;BME280;39763;51.188;6.690;2022-07-01T01:39:17;101222.94;;;18.33;73.30
53858;BME280;39763;51.188;6.690;2022-07-01T01:40:48;101220.22;;;18.35;73.32
53858;BME280;39763;51.188;6.690;2022-07-01T01:42:21;101227.59;;;18.30;73.07
53858;BME280;39763;51.188;6.690;2022-07-01T01:43:53;101228.59;;;18.27;73.40
53858;BME280;39763;51.188;6.690;2022-07-01T01:45:25;101232.31;;;18.25;73.23
53858;BME280;39763;51.188;6.690;2022-07-01T01:46:57;101222.63;;;18.24;73.67
53858;BME280;39763;51.188;6.690;2022-07-01T01:48:29;101229.75;;;18.23;73.69
53858;BME280;39763;51.188;6.690;2022-07-01T01:50:01;101223.75;;;18.20;73.52
53858;BME280;39763;51.188;6.690;2022-07-01T01:51:34;101228.63;;;18.12;74.01
53858;BME280;39763;51.188;6.690;2022-07-01T01:53:06;101224.34;;;18.09;73.90
53858;BME280;39763;51.188;6.690;2022-07-01T01:54:38;101215.06;;;18.16;73.83
53858;BME280;39763;51.188;6.690;2022-07-01T01:56:11;101223.31;;;18.12;73.45
53858;BME280;39763;51.188;6.690;2022-07-01T01:57:43;101220.75;;;18.10;73.64
53858;BME280;39763;51.188;6.690;2022-07-01T01:59:15;101224.00;;;18.00;73.48
53858;BME280;39763;51.188;6.690;2022-07-01T02:00:47;101233.84;;;17.97;74.08
53858;BME280;39763;51.188;6.690;2022-07-01T02:02:19;101231.19;;;17.97;74.12
53858;BME280;39763;51.188;6.690;2022-07-01T02:03:51;101222.28;;;17.98;74.24
53858;BME280;39763;51.188;6.690;2022-07-01T02:05:24;101224.78;;;18.02;74.07
53858;BME280;39763;51.188;6.690;2022-07-01T02:06:57;101234.47;;;18.03;73.99
53858;BME280;39763;51.188;6.690;2022-07-01T02:08:29;101224.94;;;17.98;73.78
53858;BME280;39763;51.188;6.690;2022-07-01T02:10:01;101227.69;;;17.97;73.80
53858;BME280;39763;51.188;6.690;2022-07-01T02:11:33;101226.81;;;17.96;74.12
53858;BME280;39763;51.188;6.690;2022-07-01T02:13:05;101231.88;;;18.01;73.78
53858;BME280;39763;51.188;6.690;2022-07-01T02:14:36;101227.44;;;18.02;73.84
53858;BME280;39763;51.188;6.690;2022-07-01T02:16:09;101230.94;;;18.02;74.10
53858;BME280;39763;51.188;6.690;2022-07-01T02:17:40;101228.97;;;18.06;74.19
53858;BME280;39763;51.188;6.690;2022-07-01T02:19:12;101234.31;;;18.06;74.16
53858;BME280;39763;51.188;6.690;2022-07-01T02:20:44;101238.75;;;18.05;74.08
53858;BME280;39763;51.188;6.690;2022-07-01T02:22:17;101232.66;;;18.03;73.70
53858;BME280;39763;51.188;6.690;2022-07-01T02:23:49;101238.22;;;17.98;73.61
53858;BME280;39763;51.188;6.690;2022-07-01T02:25:23;101233.94;;;17.96;73.56
53858;BME280;39763;51.188;6.690;2022-07-01T02:26:55;101227.78;;;17.95;73.83
53858;BME280;39763;51.188;6.690;2022-07-01T02:28:26;101247.34;;;17.94;73.82
53858;BME280;39763;51.188;6.690;2022-07-01T02:29:58;101243.75;;;17.95;73.70
53858;BME280;39763;51.188;6.690;2022-07-01T02:31:30;101255.19;;;17.96;73.79
53858;BME280;39763;51.188;6.690;2022-07-01T02:33:02;101256.16;;;17.95;73.79
53858;BME280;39763;51.188;6.690;2022-07-01T02:34:34;101258.72;;;17.96;73.74
53858;BME280;39763;51.188;6.690;2022-07-01T02:36:06;101260.63;;;17.94;73.76
53858;BME280;39763;51.188;6.690;2022-07-01T02:37:39;101268.41;;;17.97;73.56
53858;BME280;39763;51.188;6.690;2022-07-01T02:39:11;101263.69;;;18.03;73.83
53858;BME280;39763;51.188;6.690;2022-07-01T02:40:43;101264.13;;;18.11;73.67
53858;BME280;39763;51.188;6.690;2022-07-01T02:42:14;101268.34;;;18.15;73.00
53858;BME280;39763;51.188;6.690;2022-07-01T02:43:57;101268.25;;;18.16;73.00
53858;BME280;39763;51.188;6.690;2022-07-01T02:45:28;101269.34;;;18.12;73.08
53858;BME280;39763;51.188;6.690;2022-07-01T02:47:00;101271.34;;;18.09;73.06
53858;BME280;39763;51.188;6.690;2022-07-01T02:48:32;101277.59;;;18.08;72.98
53858;BME280;39763;51.188;6.690;2022-07-01T02:50:05;101276.84;;;18.06;72.85
53858;BME280;39763;51.188;6.690;2022-07-01T02:51:38;101275.13;;;18.05;72.91
53858;BME280;39763;51.188;6.690;2022-07-01T02:53:11;101274.25;;;18.04;73.08
53858;BME280;39763;51.188;6.690;2022-07-01T02:54:43;101282.31;;;18.03;73.21
53858;BME280;39763;51.188;6.690;2022-07-01T02:56:15;101282.31;;;18.03;72.91
53858;BME280;39763;51.188;6.690;2022-07-01T02:57:47;101283.25;;;18.02;73.07
53858;BME280;39763;51.188;6.690;2022-07-01T02:59:20;101293.81;;;18.03;73.42
53858;BME280;39763;51.188;6.690;2022-07-01T03:00:52;101292.94;;;18.03;73.38
53858;BME280;39763;51.188;6.690;2022-07-01T03:02:25;101302.78;;;18.01;73.13
53858;BME280;39763;51.188;6.690;2022-07-01T03:03:57;101295.91;;;17.96;73.18
53858;BME280;39763;51.188;6.690;2022-07-01T03:05:28;101286.75;;;17.86;73.79
53858;BME280;39763;51.188;6.690;2022-07-01T03:07:00;101302.38;;;17.92;73.76
53858;BME280;39763;51.188;6.690;2022-07-01T03:08:33;101305.88;;;17.93;73.45
53858;BME280;39763;51.188;6.690;2022-07-01T03:10:07;101299.88;;;17.89;73.22
53858;BME280;39763;51.188;6.690;2022-07-01T03:11:39;101295.66;;;17.85;73.32
53858;BME280;39763;51.188;6.690;2022-07-01T03:13:11;101293.94;;;17.84;73.35
53858;BME280;39763;51.188;6.690;2022-07-01T03:14:42;101300.03;;;17.86;73.38
53858;BME280;39763;51.188;6.690;2022-07-01T03:16:14;101298.16;;;17.88;73.62
53858;BME280;39763;51.188;6.690;2022-07-01T03:17:47;101307.84;;;17.89;73.72
53858;BME280;39763;51.188;6.690;2022-07-01T03:19:21;101310.34;;;17.92;73.61
53858;BME280;39763;51.188;6.690;2022-07-01T03:20:53;101323.47;;;17.95;73.83
53858;BME280;39763;51.188;6.690;2022-07-01T03:22:27;101318.91;;;17.97;73.97
53858;BME280;39763;51.188;6.690;2022-07-01T03:24:00;101324.06;;;18.01;74.13
53858;BME280;39763;51.188;6.690;2022-07-01T03:25:32;101322.19;;;18.03;73.54
53858;BME280;39763;51.188;6.690;2022-07-01T03:27:04;101330.84;;;18.06;73.86
53858;BME280;39763;51.188;6.690;2022-07-01T03:28:36;101326.41;;;18.07;73.81
53858;BME280;39763;51.188;6.690;2022-07-01T03:30:08;101320.91;;;18.10;73.55
53858;BME280;39763;51.188;6.690;2022-07-01T03:31:40;101329.47;;;18.15;73.34
53858;BME280;39763;51.188;6.690;2022-07-01T03:33:12;101313.53;;;18.15;73.24
53858;BME280;39763;51.188;6.690;2022-07-01T03:34:46;101317.97;;;18.14;73.08
53858;BME280;39763;51.188;6.690;2022-07-01T03:36:18;101311.13;;;18.10;73.42
53858;BME280;39763;51.188;6.690;2022-07-01T03:37:50;101301.78;;;18.19;72.81
53858;BME280;39763;51.188;6.690;2022-07-01T03:39:23;101303.41;;;18.21;73.00
53858;BME280;39763;51.188;6.690;2022-07-01T03:40:55;101297.09;;;18.24;72.68
53858;BME280;39763;51.188;6.690;2022-07-01T03:42:27;101297.25;;;18.21;72.16
53858;BME280;39763;51.188;6.690;2022-07-01T03:43:58;101304.44;;;18.19;72.32
53858;BME280;39763;51.188;6.690;2022-07-01T03:45:30;101311.72;;;18.15;72.35
53858;BME280;39763;51.188;6.690;2022-07-01T03:47:03;101305.56;;;18.15;72.38
53858;BME280;39763;51.188;6.690;2022-07-01T03:48:37;101301.25;;;18.12;72.27
53858;BME280;39763;51.188;6.690;2022-07-01T03:50:12;101310.28;;;18.10;72.42
53858;BME280;39763;51.188;6.690;2022-07-01T03:51:45;101317.47;;;18.08;72.48
53858;BME280;39763;51.188;6.690;2022-07-01T03:53:16;101320.91;;;18.10;72.51
53858;BME280;39763;51.188;6.690;2022-07-01T03:55:08;101317.41;;;18.09;72.60
53858;BME280;39763;51.188;6.690;2022-07-01T03:56:40;101319.13;;;18.10;72.33
53858;BME280;39763;51.188;6.690;2022-07-01T03:58:11;101326.03;;;18.13;72.32
53858;BME280;39763;51.188;6.690;2022-07-01T03:59:43;101326.81;;;18.15;72.54
53858;BME280;39763;51.188;6.690;2022-07-01T04:01:15;101324.00;;;18.18;72.42
53858;BME280;39763;51.188;6.690;2022-07-01T04:02:48;101327.50;;;18.18;72.23
53858;BME280;39763;51.188;6.690;2022-07-01T04:04:20;101322.13;;;18.20;72.32
53858;BME280;39763;51.188;6.690;2022-07-01T04:05:52;101320.22;;;18.22;72.24
53858;BME280;39763;51.188;6.690;2022-07-01T04:07:25;101321.16;;;18.05;72.63
53858;BME280;39763;51.188;6.690;2022-07-01T04:08:57;101318.69;;;18.18;72.28
53858;BME280;39763;51.188;6.690;2022-07-01T04:10:30;101314.38;;;18.15;71.94
53858;BME280;39763;51.188;6.690;2022-07-01T04:12:04;101323.22;;;18.16;72.04
53858;BME280;39763;51.188;6.690;2022-07-01T04:13:39;101326.03;;;18.13;71.86
53858;BME280;39763;51.188;6.690;2022-07-01T04:15:11;101323.38;;;18.13;72.19
53858;BME280;39763;51.188;6.690;2022-07-01T04:16:43;101328.69;;;18.13;72.01
53858;BME280;39763;51.188;6.690;2022-07-01T04:18:15;101318.25;;;18.10;71.97
53858;BME280;39763;51.188;6.690;2022-07-01T04:19:47;101324.31;;;18.12;72.14
53858;BME280;39763;51.188;6.690;2022-07-01T04:21:19;101315.59;;;18.10;71.53
53858;BME280;39763;51.188;6.690;2022-07-01T04:23:10;101310.28;;;18.10;71.87
53858;BME280;39763;51.188;6.690;2022-07-01T04:24:41;101323.56;;;18.10;71.74
53858;BME280;39763;51.188;6.690;2022-07-01T04:26:15;101316.34;;;18.12;71.52
53858;BME280;39763;51.188;6.690;2022-07-01T04:28:08;101334.78;;;18.15;71.68
53858;BME280;39763;51.188;6.690;2022-07-01T04:29:39;101332.06;;;18.16;71.64
53858;BME280;39763;51.188;6.690;2022-07-01T04:31:11;101321.41;;;18.16;71.68
53858;BME280;39763;51.188;6.690;2022-07-01T04:32:43;101330.16;;;18.18;71.64
53858;BME280;39763;51.188;6.690;2022-07-01T04:34:15;101326.72;;;18.16;71.47
53858;BME280;39763;51.188;6.690;2022-07-01T04:35:47;101319.69;;;18.15;71.39
53858;BME280;39763;51.188;6.690;2022-07-01T04:37:18;101330.41;;;18.14;71.34
53858;BME280;39763;51.188;6.690;2022-07-01T04:38:51;101329.63;;;18.12;71.04
53858;BME280;39763;51.188;6.690;2022-07-01T04:40:23;101326.97;;;18.12;70.98
53858;BME280;39763;51.188;6.690;2022-07-01T04:41:56;101315.41;;;18.13;71.04
53858;BME280;39763;51.188;6.690;2022-07-01T04:43:30;101313.38;;;18.18;71.19
53858;BME280;39763;51.188;6.690;2022-07-01T04:45:03;101318.44;;;18.22;70.87
53858;BME280;39763;51.188;6.690;2022-07-01T04:46:35;101303.41;;;18.21;70.65
53858;BME280;39763;51.188;6.690;2022-07-01T04:48:07;101308.03;;;18.18;70.40
53858;BME280;39763;51.188;6.690;2022-07-01T04:49:39;101309.94;;;18.16;70.30
53858;BME280;39763;51.188;6.690;2022-07-01T04:51:10;101305.63;;;18.13;70.48
53858;BME280;39763;51.188;6.690;2022-07-01T04:52:42;101306.66;;;18.11;70.28
53858;BME280;39763;51.188;6.690;2022-07-01T04:54:14;101318.25;;;18.10;70.22
53858;BME280;39763;51.188;6.690;2022-07-01T04:55:46;101322.72;;;18.09;70.58
53858;BME280;39763;51.188;6.690;2022-07-01T04:57:19;101329.63;;;18.12;70.55
53858;BME280;39763;51.188;6.690;2022-07-01T04:58:51;101327.84;;;18.12;70.84
53858;BME280;39763;51.188;6.690;2022-07-01T05:00:23;101309.94;;;18.16;70.64
53858;BME280;39763;51.188;6.690;2022-07-01T05:01:55;101310.00;;;17.98;70.83
53858;BME280;39763;51.188;6.690;2022-07-01T05:03:27;101315.50;;;17.95;71.12
53858;BME280;39763;51.188;6.690;2022-07-01T05:04:59;101314.72;;;17.93;71.24
53858;BME280;39763;51.188;6.690;2022-07-01T05:06:31;101313.78;;;17.94;71.13
53858;BME280;39763;51.188;6.690;2022-07-01T05:08:03;101315.66;;;17.92;71.26
53858;BME280;39763;51.188;6.690;2022-07-01T05:09:35;101317.53;;;17.90;71.23
53858;BME280;39763;51.188;6.690;2022-07-01T05:11:07;101306.97;;;17.89;71.39
53858;BME280;39763;51.188;6.690;2022-07-01T05:12:40;101311.44;;;17.88;71.65
53858;BME280;39763;51.188;6.690;2022-07-01T05:14:12;101295.50;;;17.88;71.77
53858;BME280;39763;51.188;6.690;2022-07-01T05:15:44;101297.22;;;17.89;71.35
53858;BME280;39763;51.188;6.690;2022-07-01T05:17:16;101294.63;;;17.88;71.41
53858;BME280;39763;51.188;6.690;2022-07-01T05:18:47;101285.88;;;17.86;71.25
53858;BME280;39763;51.188;6.690;2022-07-01T05:20:38;101288.63;;;17.84;71.37
53858;BME280;39763;51.188;6.690;2022-07-01T05:22:28;101294.72;;;17.86;71.37
53858;BME280;39763;51.188;6.690;2022-07-01T05:24:00;101291.97;;;17.88;71.51
53858;BME280;39763;51.188;6.690;2022-07-01T05:25:32;101289.16;;;17.91;71.50
53858;BME280;39763;51.188;6.690;2022-07-01T05:27:04;101286.44;;;17.92;71.31
53858;BME280;39763;51.188;6.690;2022-07-01T05:28:37;101293.47;;;17.93;71.29
53858;BME280;39763;51.188;6.690;2022-07-01T05:30:10;101294.25;;;17.95;71.37
53858;BME280;39763;51.188;6.690;2022-07-01T05:31:42;101290.44;;;18.00;71.53
53858;BME280;39763;51.188;6.690;2022-07-01T05:33:15;101305.13;;;18.07;71.39
53858;BME280;39763;51.188;6.690;2022-07-01T05:34:46;101298.59;;;18.12;71.30
53858;BME280;39763;51.188;6.690;2022-07-01T05:36:18;101306.56;;;18.12;70.91
53858;BME280;39763;51.188;6.690;2022-07-01T05:37:50;101304.69;;;18.14;70.86
53858;BME280;39763;51.188;6.690;2022-07-01T05:39:22;101299.91;;;18.21;70.93
53858;BME280;39763;51.188;6.690;2022-07-01T05:40:54;101300.69;;;18.23;70.69
53858;BME280;39763;51.188;6.690;2022-07-01T05:42:25;101305.72;;;18.27;70.81
53858;BME280;39763;51.188;6.690;2022-07-01T05:43:58;101314.38;;;18.31;70.77
53858;BME280;39763;51.188;6.690;2022-07-01T05:45:30;101310.78;;;18.32;70.64
53858;BME280;39763;51.188;6.690;2022-07-01T05:47:02;101328.31;;;18.36;70.50
53858;BME280;39763;51.188;6.690;2022-07-01T05:48:34;101318.69;;;18.33;70.26
53858;BME280;39763;51.188;6.690;2022-07-01T05:50:06;101320.31;;;18.36;70.53
53858;BME280;39763;51.188;6.690;2022-07-01T05:51:38;101336.00;;;18.41;70.53
53858;BME280;39763;51.188;6.690;2022-07-01T05:53:10;101327.84;;;18.44;70.41
53858;BME280;39763;51.188;6.690;2022-07-01T05:54:42;101331.28;;;18.46;70.27
53858;BME280;39763;51.188;6.690;2022-07-01T05:56:14;101325.81;;;18.49;70.14
53858;BME280;39763;51.188;6.690;2022-07-01T05:57:46;101329.16;;;18.52;70.38
53858;BME280;39763;51.188;6.690;2022-07-01T05:59:19;101331.53;;;18.57;70.42
53858;BME280;39763;51.188;6.690;2022-07-01T06:00:51;101333.97;;;18.61;70.23
53858;BME280;39763;51.188;6.690;2022-07-01T06:02:23;101337.50;;;18.62;69.59
53858;BME280;39763;51.188;6.690;2022-07-01T06:03:54;101334.06;;;18.60;69.66
53858;BME280;39763;51.188;6.690;2022-07-01T06:05:26;101333.19;;;18.59;69.66
53858;BME280;39763;51.188;6.690;2022-07-01T06:06:58;101327.88;;;18.59;69.73
53858;BME280;39763;51.188;6.690;2022-07-01T06:08:30;101333.63;;;18.67;69.65
53858;BME280;39763;51.188;6.690;2022-07-01T06:10:02;101329.84;;;18.72;69.41
53858;BME280;39763;51.188;6.690;2022-07-01T06:11:34;101333.00;;;18.78;69.29
53858;BME280;39763;51.188;6.690;2022-07-01T06:13:06;101334.47;;;18.84;69.51
53858;BME280;39763;51.188;6.690;2022-07-01T06:14:39;101325.50;;;18.85;68.56
53858;BME280;39763;51.188;6.690;2022-07-01T06:16:11;101331.03;;;18.82;68.09
53858;BME280;39763;51.188;6.690;2022-07-01T06:17:43;101337.38;;;18.79;68.40
53858;BME280;39763;51.188;6.690;2022-07-01T06:19:15;101326.28;;;18.87;68.47
53858;BME280;39763;51.188;6.690;2022-07-01T06:20:47;101335.47;;;18.97;68.56
53858;BME280;39763;51.188;6.690;2022-07-01T06:22:18;101340.34;;;19.05;68.25
53858;BME280;39763;51.188;6.690;2022-07-01T06:23:52;101345.31;;;19.11;68.20
53858;BME280;39763;51.188;6.690;2022-07-01T06:25:24;101343.22;;;19.16;68.21
53858;BME280;39763;51.188;6.690;2022-07-01T06:26:55;101342.19;;;19.18;67.89
53858;BME280;39763;51.188;6.690;2022-07-01T06:28:27;101338.41;;;19.22;68.08
53858;BME280;39763;51.188;6.690;2022-07-01T06:30:03;101344.31;;;19.27;67.73
53858;BME280;39763;51.188;6.690;2022-07-01T06:31:35;101360.09;;;19.30;67.31
53858;BME280;39763;51.188;6.690;2022-07-01T06:33:07;101365.53;;;19.29;67.06
53858;BME280;39763;51.188;6.690;2022-07-01T06:34:39;101367.34;;;19.28;66.98
53858;BME280;39763;51.188;6.690;2022-07-01T06:36:12;101366.38;;;19.29;67.04
53858;BME280;39763;51.188;6.690;2022-07-01T06:37:45;101363.69;;;19.29;66.47
53858;BME280;39763;51.188;6.690;2022-07-01T06:39:20;101366.97;;;19.34;66.49
53858;BME280;39763;51.188;6.690;2022-07-01T06:40:52;101370.41;;;19.36;66.29
53858;BME280;39763;51.188;6.690;2022-07-01T06:42:42;101358.97;;;19.34;66.15
53858;BME280;39763;51.188;6.690;2022-07-01T06:44:14;101356.22;;;19.36;66.36
53858;BME280;39763;51.188;6.690;2022-07-01T06:45:47;101364.88;;;19.40;66.37
53858;BME280;39763;51.188;6.690;2022-07-01T06:47:18;101376.66;;;19.35;66.10
53858;BME280;39763;51.188;6.690;2022-07-01T06:48:50;101376.84;;;19.32;66.18
53858;BME280;39763;51.188;6.690;2022-07-01T06:50:22;101379.59;;;19.31;65.98
53858;BME280;39763;51.188;6.690;2022-07-01T06:51:54;101370.75;;;19.30;65.85
53858;BME280;39763;51.188;6.690;2022-07-01T06:53:26;101383.97;;;19.32;66.02
53858;BME280;39763;51.188;6.690;2022-07-01T06:54:57;101383.13;;;19.31;65.66
53858;BME280;39763;51.188;6.690;2022-07-01T06:56:29;101387.41;;;19.34;65.70
53858;BME280;39763;51.188;6.690;2022-07-01T06:58:02;101388.94;;;19.38;65.84
53858;BME280;39763;51.188;6.690;2022-07-01T06:59:35;101386.69;;;19.46;66.02
53858;BME280;39763;51.188;6.690;2022-07-01T07:01:08;101385.22;;;19.56;65.41
53858;BME280;39763;51.188;6.690;2022-07-01T07:02:40;101382.47;;;19.58;64.64
53858;BME280;39763;51.188;6.690;2022-07-01T07:04:12;101381.91;;;19.67;65.00
53858;BME280;39763;51.188;6.690;2022-07-01T07:05:44;101392.94;;;19.75;64.78
53858;BME280;39763;51.188;6.690;2022-07-01T07:07:16;101401.34;;;19.83;64.81
53858;BME280;39763;51.188;6.690;2022-07-01T07:08:48;101397.56;;;19.87;64.48
53858;BME280;39763;51.188;6.690;2022-07-01T07:10:19;101407.28;;;19.88;64.48
53858;BME280;39763;51.188;6.690;2022-07-01T07:11:51;101403.63;;;19.89;64.45
53858;BME280;39763;51.188;6.690;2022-07-01T07:13:23;101412.69;;;19.87;64.18
53858;BME280;39763;51.188;6.690;2022-07-01T07:14:55;101404.88;;;19.84;64.30
53858;BME280;39763;51.188;6.690;2022-07-01T07:16:28;101406.78;;;19.82;64.26
53858;BME280;39763;51.188;6.690;2022-07-01T07:18:00;101400.69;;;19.80;64.35
53858;BME280;39763;51.188;6.690;2022-07-01T07:19:32;101404.88;;;19.84;64.36
53858;BME280;39763;51.188;6.690;2022-07-01T07:21:04;101399.28;;;19.88;63.77
53858;BME280;39763;51.188;6.690;2022-07-01T07:22:35;101394.50;;;19.93;64.14
53858;BME280;39763;51.188;6.690;2022-07-01T07:24:08;101393.72;;;19.91;64.28
53858;BME280;39763;51.188;6.690;2022-07-01T07:25:39;101394.31;;;19.96;64.31
53858;BME280;39763;51.188;6.690;2022-07-01T07:27:11;101395.94;;;19.99;63.84
53858;BME280;39763;51.188;6.690;2022-07-01T07:28:43;101400.00;;;20.04;64.86
53858;BME280;39763;51.188;6.690;2022-07-01T07:30:15;101398.09;;;20.21;65.98
53858;BME280;39763;51.188;6.690;2022-07-01T07:31:49;101395.75;;;20.45;65.99
53858;BME280;39763;51.188;6.690;2022-07-01T07:33:20;101396.50;;;20.61;65.83
53858;BME280;39763;51.188;6.690;2022-07-01T07:34:52;101403.47;;;20.90;66.21
53858;BME280;39763;51.188;6.690;2022-07-01T07:36:24;101408.13;;;21.13;65.45
53858;BME280;39763;51.188;6.690;2022-07-01T07:37:56;101398.16;;;21.30;64.47
53858;BME280;39763;51.188;6.690;2022-07-01T07:39:28;101392.75;;;21.44;64.01
53858;BME280;39763;51.188;6.690;2022-07-01T07:41:03;101386.47;;;21.58;63.00
53858;BME280;39763;51.188;6.690;2022-07-01T07:42:36;101383.59;;;21.86;62.94
53858;BME280;39763;51.188;6.690;2022-07-01T07:44:08;101398.44;;;22.28;62.17
53858;BME280;39763;51.188;6.690;2022-07-01T07:45:40;101399.00;;;22.70;61.34
53858;BME280;39763;51.188;6.690;2022-07-01T07:47:13;101406.63;;;23.00;60.52
53858;BME280;39763;51.188;6.690;2022-07-01T07:48:45;101404.75;;;23.13;59.58
53858;BME280;39763;51.188;6.690;2022-07-01T07:50:17;101415.22;;;23.16;59.29
53858;BME280;39763;51.188;6.690;2022-07-01T07:51:49;101419.59;;;23.17;58.48
53858;BME280;39763;51.188;6.690;2022-07-01T07:53:20;101417.41;;;23.11;57.94
53858;BME280;39763;51.188;6.690;2022-07-01T07:54:52;101414.63;;;23.12;58.46
53858;BME280;39763;51.188;6.690;2022-07-01T07:56:24;101422.53;;;23.14;58.01
53858;BME280;39763;51.188;6.690;2022-07-01T07:57:56;101417.03;;;23.15;57.48
53858;BME280;39763;51.188;6.690;2022-07-01T07:59:28;101417.78;;;23.17;57.29
53858;BME280;39763;51.188;6.690;2022-07-01T08:00:59;101426.47;;;23.21;57.24
53858;BME280;39763;51.188;6.690;2022-07-01T08:02:38;101423.78;;;23.21;56.43
53858;BME280;39763;51.188;6.690;2022-07-01T08:04:10;101425.78;;;23.06;55.39
53858;BME280;39763;51.188;6.690;2022-07-01T08:05:42;101431.81;;;22.97;55.56